Latest Coastal Weather Observations for Wynyard

IDT60701

Issued at 11:03 pm EDT Tuesday 21 February 2017 (issued every 10 minutes, with the page automatically refreshed every 10 minutes)

About coastal observations | Map of coastal stations | Coastal observations for TAS | Marine services | Other Formats
Station Details ID: 091107 Name: WYNYARD AIRPORT Lat: -41.00 Lon: 145.73 Height: 12.0 m
Data from the previous 72 hours. | See also: Recent months at Wynyard
Date/Time
EDT
Temp
°C
Wind Pressure Rain since
9am
mm
Weather Cloud Vis
km
Sea
Height
m
Swell
Dir  Spd
kts
Gust
kts
hPa Trend Height
m
Period
s
Dir
21/11:00pm 9.9 W 6 7 1018.5 - 0.0 - - 10 - - - -
21/10:30pm 12.5 WNW 7 8 1018.6 - 0.0 - - 10 - - - -
21/10:00pm 12.9 WNW 7 8 1018.3 - 0.0 - - 10 - - - -
21/09:30pm 13.9 WNW 7 9 1018.0 - 0.0 - - 10 - - - -
21/09:00pm 14.8 W 7 9 1017.8 - 0.0 - - 10 - - - -
21/08:30pm 16.5 WNW 7 8 1017.4 - 0.0 - - 10 - - - -
21/08:00pm 18.2 WNW 9 11 1017.4 - 0.0 - - 10 - - - -
21/07:30pm 20.1 WNW 11 14 1017.0 - 0.0 - - 10 - - - -
21/07:00pm 21.1 WNW 11 15 1016.5 - 0.0 - - 10 - - - -
21/06:30pm 21.0 NNW 11 14 1016.2 - 0.0 - - 10 - - - -
21/06:00pm 22.3 WNW 11 15 1016.1 - 0.0 - - 10 - - - -
21/05:30pm 22.5 WNW 11 15 1016.2 - 0.0 - - 10 - - - -
21/05:00pm 22.9 WSW 9 13 1016.4 - 0.0 - - 10 - - - -
21/04:30pm 22.8 WNW 11 15 1016.6 - 0.0 - - 10 - - - -
21/04:00pm 22.9 W 10 14 1016.7 - 0.0 - - 10 - - - -
21/03:30pm 22.6 W 12 17 1017.0 - 0.0 - - 10 - - - -
21/03:00pm 22.0 WSW 9 15 1017.2 - 0.0 - - 10 - - - -
21/02:30pm 21.6 WSW 9 16 1017.6 - 0.0 - Partly cloudy 10 - - - -
21/02:00pm 21.8 SW 10 16 1017.8 - 0.0 - Partly cloudy 10 - - - -
21/01:30pm 20.1 W 10 14 1018.0 - 0.0 - Partly cloudy 10 - - - -
21/01:00pm 20.7 WSW 12 16 1018.2 - 0.0 - Partly cloudy 10 - - - -
21/12:30pm 19.8 WNW 8 15 1018.3 - 0.0 - Partly cloudy 10 - - - -
21/12:00pm 19.4 W 6 12 1018.5 - 0.0 - Mostly clear 10 - - - -
21/11:30am 19.2 WSW 10 16 1018.7 - 0.0 - Partly cloudy 10 - - - -
21/11:00am 18.4 SW 8 13 1019.0 - 0.0 - - 10 - - - -
21/10:30am 18.0 SW 9 14 1018.9 - 0.0 - Partly cloudy 10 - - - -
21/10:00am 16.3 W 8 10 1018.8 - 0.0 - - 10 - - - -
21/09:30am 15.4 WNW 9 11 1018.6 - 0.0 - - 10 - - - -
21/09:00am 14.2 WNW 7 9 1018.4 - 0.0 - - 10 - - - -
21/08:30am 12.9 WNW 7 9 1018.0 - 0.0 - - 10 - - - -
21/08:00am 10.8 WNW 7 8 1017.9 - 0.0 - - 10 - - - -
21/07:30am 8.1 W 5 7 1017.5 - 0.0 - - 10 - - - -
21/07:00am 5.9 W 6 7 1017.0 - 0.0 - - 10 - - - -
21/06:30am 5.8 W 5 6 1016.4 - 0.0 - - 10 - - - -
21/06:00am 6.2 W 5 7 1015.9 - 0.0 - - 10 - - - -
21/05:30am 7.8 W 4 5 1015.5 - 0.0 - - 10 - - - -
21/05:00am 9.2 WNW 7 10 1015.3 - 0.0 - - 10 - - - -
21/04:30am 8.6 WNW 6 8 1015.1 - 0.0 - - 10 - - - -
21/04:00am 9.2 W 5 6 1014.8 - 0.0 - - 10 - - - -
21/03:30am 10.4 WNW 7 9 1014.7 - 0.0 - - 10 - - - -
21/03:00am 9.7 W 6 8 1014.4 - 0.0 - - 10 - - - -
21/02:30am 10.5 NW 4 6 1013.9 - 0.0 - - 10 - - - -
21/02:00am 11.7 NW 5 6 1013.8 - 0.0 - - 10 - - - -
21/01:30am 12.0 W 6 9 1013.7 - 0.0 - - 10 - - - -
21/01:00am 12.4 NW 6 7 1013.6 - 0.0 - - 10 - - - -
21/12:30am 12.7 W 7 9 1013.6 - 0.0 - - 10 - - - -
21/12:00am 13.1 WSW 8 11 1013.3 - 0.0 - - 10 - - - -
 
Date/Time
EDT
Temp
°C
Wind Pressure Rain since
9am
mm
Weather Cloud Vis
km
Sea
Height
m
Swell
Dir  Spd
kts
Gust
kts
hPa Trend Height
m
Period
s
Dir
20/11:30pm 13.4 SW 8 12 1013.1 - 0.0 - - 10 - - - -
20/11:00pm 13.2 WSW 7 11 1013.0 - 0.0 - - 10 - - - -
20/10:30pm 13.6 SW 10 13 1012.7 - 0.0 - - 10 - - - -
20/10:00pm 13.5 SW 8 11 1012.6 - 0.0 - - 10 - - - -
20/09:30pm 14.2 WSW 9 11 1012.3 - 0.0 - - 10 - - - -
20/09:00pm 14.1 W 7 9 1011.8 - 0.0 - - 10 - - - -
20/08:30pm 15.1 WSW 9 11 1011.3 - 0.0 - - 10 - - - -
20/08:00pm 16.7 SW 11 16 1010.9 - 0.0 - - 10 - - - -
20/07:30pm 18.1 WSW 12 17 1010.2 - 0.0 - - 10 - - - -
20/07:00pm 19.3 WSW 12 17 1009.4 - 0.0 - - 10 - - - -
20/06:30pm 20.1 SSW 11 17 1008.9 - 0.0 - - 10 - - - -
20/06:00pm 20.2 SSW 9 15 1008.6 - 0.0 - Partly cloudy 10 - - - -
20/05:30pm 21.0 SW 7 10 1008.2 - 0.0 - Partly cloudy 10 - - - -
20/05:00pm 21.6 WSW 9 14 1007.8 - 0.0 - Partly cloudy 10 - - - -
20/04:30pm 21.3 WSW 11 16 1007.5 - 0.0 - - 10 - - - -
20/04:00pm 21.0 SW 14 20 1007.3 - 0.0 - Partly cloudy 10 - - - -
20/03:30pm 21.4 WSW 11 17 1007.3 - 0.0 - Partly cloudy 10 - - - -
20/03:00pm 20.7 SW 11 18 1007.5 - 0.0 - Mostly clear 10 - - - -
20/02:30pm 19.8 SSW 10 14 1007.4 - 0.0 - Partly cloudy 10 - - - -
20/02:00pm 20.4 WSW 11 19 1007.3 - 0.0 - Partly cloudy 10 - - - -
20/01:30pm 18.0 W 13 18 1007.3 - 0.0 - Partly cloudy 10 - - - -
20/01:00pm 19.6 SW 11 16 1007.5 - 0.0 - Partly cloudy 10 - - - -
20/12:30pm 19.0 WSW 13 17 1007.7 - 0.0 - - 10 - - - -
20/12:00pm 18.7 SW 10 16 1007.7 - 0.0 - - 10 - - - -
20/11:30am 17.7 SW 10 15 1008.1 - 0.0 - - 10 - - - -
20/11:00am 16.9 WSW 9 12 1008.2 - 0.0 - - 10 - - - -
20/10:30am 16.3 WSW 9 11 1008.1 - 0.0 - - 10 - - - -
20/10:00am 15.2 SSW 7 9 1008.0 - 0.0 - - 10 - - - -
20/09:30am 14.1 SW 7 10 1008.0 - 0.0 - - 10 - - - -
20/09:00am 12.0 WNW 8 10 1007.8 - 6.0 - - 10 - - - -
20/08:30am 10.3 W 7 8 1007.6 - 6.0 - - 10 - - - -
20/08:00am 8.7 WNW 6 8 1007.7 - 6.0 - - 10 - - - -
20/07:30am 7.0 WNW 5 6 1007.4 - 6.0 - - 10 - - - -
20/07:00am 7.3 WSW 3 5 1007.2 - 6.0 - - 10 - - - -
20/06:30am 6.7 WNW 5 7 1006.9 - 6.0 - - 10 - - - -
20/06:00am 6.0 W 4 5 1006.5 - 6.0 - - 10 - - - -
20/05:30am 6.9 WNW 6 7 1006.3 - 6.0 - - 10 - - - -
20/05:00am 7.3 WNW 8 9 1006.2 - 6.0 - - 10 - - - -
20/04:30am 7.3 WNW 7 8 1006.2 - 6.0 - - 10 - - - -
20/04:00am 6.9 WNW 6 10 1006.2 - 6.0 - - 10 - - - -
20/03:30am 7.3 WNW 7 8 1006.2 - 6.0 - - 10 - - - -
20/03:00am 6.8 WNW 8 10 1006.1 - 6.0 - - 10 - - - -
20/02:30am 7.0 W 6 9 1005.9 - 6.0 - - 10 - - - -
20/02:00am 8.0 SW 4 5 1005.8 - 6.0 - - 10 - - - -
20/01:30am 7.9 SW 4 7 1006.1 - 6.0 - - 10 - - - -
20/01:00am 7.1 WSW 5 7 1006.1 - 6.0 - - 10 - - - -
20/12:30am 7.7 SW 4 8 1006.1 - 6.0 - - 10 - - - -
20/12:00am 7.4 WSW 4 6 1006.0 - 6.0 - - 10 - - - -
 
Date/Time
EDT
Temp
°C
Wind Pressure Rain since
9am
mm
Weather Cloud Vis
km
Sea
Height
m
Swell
Dir  Spd
kts
Gust
kts
hPa Trend Height
m
Period
s
Dir
19/11:30pm 6.3 WSW 6 7 1006.1 - 6.0 - - 10 - - - -
19/11:00pm 7.4 W 6 7 1006.4 - 6.0 - - 10 - - - -
19/10:30pm 7.8 W 5 7 1006.4 - 6.0 - - 10 - - - -
19/10:00pm 8.6 W 4 5 1006.3 - 6.0 - - 10 - - - -
19/09:30pm 9.3 SSW 5 7 1006.0 - 6.0 - - 10 - - - -
19/09:00pm 10.7 SSW 6 9 1005.7 - 6.0 - Mostly clear 10 - - - -
19/08:30pm 11.4 SSW 2 4 1005.3 - 6.0 - Cloudy 10 - - - -
19/08:00pm 11.9 SSW 4 5 1005.0 - 6.0 - Partly cloudy 10 - - - -
19/07:30pm 13.1 N 4 5 1004.5 - 6.0 - - 10 - - - -
19/07:00pm 14.0 CALM 0 3 1004.0 - 6.0 - - 10 - - - -
19/06:30pm 14.1 E 1 3 1003.9 - 6.0 - Partly cloudy 10 - - - -
19/06:00pm 13.2 SW 5 7 1003.8 - 6.0 - Cloudy 10 - - - -
19/05:30pm 12.1 WSW 9 10 1003.7 - 6.0 - Partly cloudy 10 - - - -
19/05:00pm 13.3 NNE 5 8 1003.4 - 6.0 - Partly cloudy 10 - - - -
19/04:30pm 14.5 NE 6 9 1003.3 - 6.0 - Partly cloudy 10 - - - -
19/04:00pm 13.8 NNE 6 8 1003.5 - 6.0 - Partly cloudy 10 - - - -
19/03:30pm 12.9 NE 3 7 1003.5 - 6.0 - Partly cloudy 10 - - - -
19/03:00pm 13.0 ENE 5 6 1003.7 - 6.0 Recent precip. Cloudy 10 - - - -
19/02:30pm 11.8 E 3 5 1003.9 - 6.0 - Partly cloudy 10 - - - -
19/02:06pm 11.3 S 7 11 1003.9 - 5.6 - Partly cloudy 7 - - - -
19/02:00pm 11.1 SSW 10 15 1004.0 - 5.6 - Partly cloudy 6 - - - -
19/01:46pm 11.0 WNW 13 19 1004.0 - 5.2 - Partly cloudy 5 - - - -
19/01:30pm 14.4 N 5 10 1003.6 - 4.4 - Partly cloudy 10 - - - -
19/01:00pm 13.6 ENE 4 5 1003.8 - 4.4 - Partly cloudy 10 - - - -
19/12:30pm 12.5 NNE 4 6 1004.2 - 3.8 - Partly cloudy 10 - - - -
19/12:00pm 11.9 SSE 3 5 1004.3 - 3.6 Recent precip. Mostly clear 10 - - - -
19/11:57am 11.5 SSE 4 7 1004.4 - 3.6 - Partly cloudy 10 - - - -
19/11:30am 9.0 W 16 21 1004.8 - 1.4 - Partly cloudy 3 - - - -
19/11:25am 9.9 WNW 15 22 1004.6 - 0.4 - Partly cloudy 5 - - - -
19/11:21am 11.3 NW 12 22 1004.6 - 0.0 - Partly cloudy 10 - - - -
19/11:00am 14.3 SW 2 7 1004.1 - 0.0 - Partly cloudy 10 - - - -
19/10:30am 13.3 W 7 12 1004.3 - 0.0 - Partly cloudy 10 - - - -
19/10:00am 13.6 W 8 11 1004.3 - 0.0 - Partly cloudy 10 - - - -
19/09:30am 11.8 WNW 5 7 1004.3 - 0.0 - Partly cloudy 10 - - - -
19/09:00am 10.9 W 3 5 1004.4 - 2.4 - - 10 - - - -
19/08:30am 9.8 SW 4 5 1004.2 - 2.4 - - 10 - - - -
19/08:00am 8.1 SSW 3 5 1004.2 - 2.4 - - 10 - - - -
19/07:30am 7.1 CALM 0 0 1004.2 - 2.4 - Partly cloudy 7 - - - -
19/07:00am 7.7 S 4 5 1004.0 - 2.4 - Partly cloudy 10 - - - -
19/06:30am 7.5 SW 4 5 1003.8 - 2.4 - Partly cloudy 10 - - - -
19/06:00am 8.6 W 5 6 1003.7 - 2.4 - Cloudy 10 - - - -
19/05:30am 8.3 WSW 4 5 1003.2 - 2.4 - Partly cloudy 10 - - - -
19/05:00am 8.5 CALM 0 0 1003.3 - 2.4 - Partly cloudy 10 - - - -
19/04:30am 8.3 WSW 5 7 1003.8 - 2.2 - Partly cloudy 10 - - - -
19/04:00am 8.4 CALM 0 0 1003.8 - 2.2 - Partly cloudy 10 - - - -
19/03:30am 8.9 SW 3 4 1004.1 - 2.2 - Partly cloudy 9 - - - -
19/03:00am 8.3 SSW 4 4 1004.5 - 1.6 Recent precip. Cloudy 10 - - - -
19/02:30am 8.2 S 1 3 1004.9 - 1.6 - Partly cloudy 10 - - - -
19/02:00am 8.5 CALM 0 0 1005.4 - 1.4 - Partly cloudy 10 - - - -
19/01:30am 8.4 WSW 3 4 1005.7 - 1.2 - Partly cloudy 10 - - - -
19/01:00am 8.5 W 5 7 1005.9 - 1.2 - Partly cloudy 10 - - - -
19/12:30am 7.0 SW 3 5 1006.4 - 0.6 - Partly cloudy 10 - - - -
19/12:00am 6.5 W 4 5 1006.6 - 0.6 - Mostly cloudy 10 - - - -
 
Date/Time
EDT
Temp
°C
Wind Pressure Rain since
9am
mm
Weather Cloud Vis
km
Sea
Height
m
Swell
Dir  Spd
kts
Gust
kts
hPa Trend Height
m
Period
s
Dir
18/11:30pm 8.3 WSW 5 6 1006.9 - 0.6 - Partly cloudy 10 - - - -

Other Formats:

Comma delimited format used in spreadsheet applications
http://www.bom.gov.au/fwo/IDT60701/IDT60701.95957.axf

JavaScript Object Notation format (JSON) in row-major order
http://www.bom.gov.au/fwo/IDT60701/IDT60701.95957.json